sensor_id;sensor_type;location;lat;lon;timestamp;P1;durP1;ratioP1;P2;durP2;ratioP2
69989;SDS011;57331;52.054;5.294;2023-04-24T00:02:29;4.90;;;1.67;;
69989;SDS011;57331;52.054;5.294;2023-04-24T00:04:58;4.87;;;2.30;;
69989;SDS011;57331;52.054;5.294;2023-04-24T00:07:29;4.00;;;2.05;;
69989;SDS011;57331;52.054;5.294;2023-04-24T00:09:56;5.65;;;2.55;;
69989;SDS011;57331;52.054;5.294;2023-04-24T00:12:24;4.20;;;2.10;;
69989;SDS011;57331;52.054;5.294;2023-04-24T00:14:51;7.95;;;3.20;;
69989;SDS011;57331;52.054;5.294;2023-04-24T00:17:19;6.20;;;3.13;;
69989;SDS011;57331;52.054;5.294;2023-04-24T00:19:47;6.75;;;3.25;;
69989;SDS011;57331;52.054;5.294;2023-04-24T00:22:14;4.85;;;2.67;;
69989;SDS011;57331;52.054;5.294;2023-04-24T00:24:42;5.90;;;2.67;;
69989;SDS011;57331;52.054;5.294;2023-04-24T00:27:09;5.95;;;2.72;;
69989;SDS011;57331;52.054;5.294;2023-04-24T00:29:36;5.23;;;2.83;;
69989;SDS011;57331;52.054;5.294;2023-04-24T00:32:03;5.85;;;2.28;;
69989;SDS011;57331;52.054;5.294;2023-04-24T00:34:31;6.28;;;2.58;;
69989;SDS011;57331;52.054;5.294;2023-04-24T00:36:59;6.50;;;2.47;;
69989;SDS011;57331;52.054;5.294;2023-04-24T00:39:26;7.60;;;2.25;;
69989;SDS011;57331;52.054;5.294;2023-04-24T00:41:53;6.47;;;3.00;;
69989;SDS011;57331;52.054;5.294;2023-04-24T00:44:21;6.72;;;3.47;;
69989;SDS011;57331;52.054;5.294;2023-04-24T00:46:48;6.45;;;2.80;;
69989;SDS011;57331;52.054;5.294;2023-04-24T00:49:21;8.98;;;3.00;;
69989;SDS011;57331;52.054;5.294;2023-04-24T00:51:49;9.32;;;4.07;;
69989;SDS011;57331;52.054;5.294;2023-04-24T00:54:17;7.30;;;3.90;;
69989;SDS011;57331;52.054;5.294;2023-04-24T00:56:44;7.95;;;4.00;;
69989;SDS011;57331;52.054;5.294;2023-04-24T00:59:12;13.10;;;4.32;;
69989;SDS011;57331;52.054;5.294;2023-04-24T01:01:39;7.72;;;4.28;;
69989;SDS011;57331;52.054;5.294;2023-04-24T01:04:11;8.90;;;3.88;;
69989;SDS011;57331;52.054;5.294;2023-04-24T01:06:39;13.87;;;4.80;;
69989;SDS011;57331;52.054;5.294;2023-04-24T01:09:07;9.05;;;4.07;;
69989;SDS011;57331;52.054;5.294;2023-04-24T01:11:35;10.18;;;4.35;;
69989;SDS011;57331;52.054;5.294;2023-04-24T01:14:04;9.75;;;4.22;;
69989;SDS011;57331;52.054;5.294;2023-04-24T01:16:31;10.15;;;4.20;;
69989;SDS011;57331;52.054;5.294;2023-04-24T01:18:59;7.63;;;4.20;;
69989;SDS011;57331;52.054;5.294;2023-04-24T01:21:27;7.53;;;4.30;;
69989;SDS011;57331;52.054;5.294;2023-04-24T01:23:56;10.05;;;4.22;;
69989;SDS011;57331;52.054;5.294;2023-04-24T01:26:23;9.18;;;4.05;;
69989;SDS011;57331;52.054;5.294;2023-04-24T01:28:51;11.05;;;4.03;;
69989;SDS011;57331;52.054;5.294;2023-04-24T01:31:19;8.20;;;4.20;;
69989;SDS011;57331;52.054;5.294;2023-04-24T01:33:46;8.27;;;4.35;;
69989;SDS011;57331;52.054;5.294;2023-04-24T01:36:14;9.35;;;4.20;;
69989;SDS011;57331;52.054;5.294;2023-04-24T01:38:42;9.25;;;4.40;;
69989;SDS011;57331;52.054;5.294;2023-04-24T01:41:10;8.05;;;3.97;;
69989;SDS011;57331;52.054;5.294;2023-04-24T01:43:37;7.60;;;3.70;;
69989;SDS011;57331;52.054;5.294;2023-04-24T01:46:05;7.68;;;4.18;;
69989;SDS011;57331;52.054;5.294;2023-04-24T01:48:35;7.93;;;4.25;;
69989;SDS011;57331;52.054;5.294;2023-04-24T01:51:02;12.10;;;4.32;;
69989;SDS011;57331;52.054;5.294;2023-04-24T01:53:29;8.23;;;4.03;;
69989;SDS011;57331;52.054;5.294;2023-04-24T01:55:57;9.90;;;4.00;;
69989;SDS011;57331;52.054;5.294;2023-04-24T01:58:24;6.55;;;3.13;;
69989;SDS011;57331;52.054;5.294;2023-04-24T02:00:52;8.73;;;4.60;;
69989;SDS011;57331;52.054;5.294;2023-04-24T02:03:19;8.88;;;4.28;;
69989;SDS011;57331;52.054;5.294;2023-04-24T02:05:47;8.20;;;4.13;;
69989;SDS011;57331;52.054;5.294;2023-04-24T02:08:15;9.13;;;4.17;;
69989;SDS011;57331;52.054;5.294;2023-04-24T02:10:42;9.63;;;4.57;;
69989;SDS011;57331;52.054;5.294;2023-04-24T02:13:09;8.55;;;4.60;;
69989;SDS011;57331;52.054;5.294;2023-04-24T02:15:37;8.60;;;4.57;;
69989;SDS011;57331;52.054;5.294;2023-04-24T02:18:04;8.30;;;4.45;;
69989;SDS011;57331;52.054;5.294;2023-04-24T02:20:33;10.43;;;4.87;;
69989;SDS011;57331;52.054;5.294;2023-04-24T02:23:01;9.07;;;5.13;;
69989;SDS011;57331;52.054;5.294;2023-04-24T02:25:28;11.15;;;4.80;;
69989;SDS011;57331;52.054;5.294;2023-04-24T02:27:55;9.63;;;4.93;;
69989;SDS011;57331;52.054;5.294;2023-04-24T02:30:23;10.68;;;4.88;;
69989;SDS011;57331;52.054;5.294;2023-04-24T02:32:50;9.50;;;4.90;;
69989;SDS011;57331;52.054;5.294;2023-04-24T02:35:17;10.65;;;5.18;;
69989;SDS011;57331;52.054;5.294;2023-04-24T02:37:44;9.77;;;4.68;;
69989;SDS011;57331;52.054;5.294;2023-04-24T02:40:12;8.88;;;4.88;;
69989;SDS011;57331;52.054;5.294;2023-04-24T02:42:39;9.70;;;4.53;;
69989;SDS011;57331;52.054;5.294;2023-04-24T02:45:06;9.23;;;4.33;;
69989;SDS011;57331;52.054;5.294;2023-04-24T02:47:34;8.57;;;4.65;;
69989;SDS011;57331;52.054;5.294;2023-04-24T02:50:03;8.98;;;4.68;;
69989;SDS011;57331;52.054;5.294;2023-04-24T02:52:30;9.52;;;5.15;;
69989;SDS011;57331;52.054;5.294;2023-04-24T02:54:57;10.05;;;4.57;;
69989;SDS011;57331;52.054;5.294;2023-04-24T02:57:24;9.83;;;5.17;;
69989;SDS011;57331;52.054;5.294;2023-04-24T02:59:51;11.60;;;5.60;;
69989;SDS011;57331;52.054;5.294;2023-04-24T03:02:18;10.23;;;5.78;;
69989;SDS011;57331;52.054;5.294;2023-04-24T03:04:46;10.38;;;5.78;;
69989;SDS011;57331;52.054;5.294;2023-04-24T03:07:14;11.50;;;6.03;;
69989;SDS011;57331;52.054;5.294;2023-04-24T03:09:42;11.50;;;6.20;;
69989;SDS011;57331;52.054;5.294;2023-04-24T03:12:10;13.85;;;5.88;;
69989;SDS011;57331;52.054;5.294;2023-04-24T03:14:38;11.20;;;5.80;;
69989;SDS011;57331;52.054;5.294;2023-04-24T03:17:05;11.32;;;5.63;;
69989;SDS011;57331;52.054;5.294;2023-04-24T03:19:33;14.15;;;6.72;;
69989;SDS011;57331;52.054;5.294;2023-04-24T03:22:06;13.83;;;5.60;;
69989;SDS011;57331;52.054;5.294;2023-04-24T03:24:35;11.52;;;6.32;;
69989;SDS011;57331;52.054;5.294;2023-04-24T03:27:03;10.73;;;5.80;;
69989;SDS011;57331;52.054;5.294;2023-04-24T03:29:56;11.80;;;4.78;;
69989;SDS011;57331;52.054;5.294;2023-04-24T03:32:45;9.13;;;4.65;;
69989;SDS011;57331;52.054;5.294;2023-04-24T03:35:16;7.30;;;3.50;;
69989;SDS011;57331;52.054;5.294;2023-04-24T03:37:44;8.55;;;3.45;;
69989;SDS011;57331;52.054;5.294;2023-04-24T03:40:29;7.03;;;3.45;;
69989;SDS011;57331;52.054;5.294;2023-04-24T03:42:57;7.43;;;3.45;;
69989;SDS011;57331;52.054;5.294;2023-04-24T03:45:25;8.68;;;3.85;;
69989;SDS011;57331;52.054;5.294;2023-04-24T03:47:52;8.03;;;3.13;;
69989;SDS011;57331;52.054;5.294;2023-04-24T03:50:19;7.85;;;3.63;;
69989;SDS011;57331;52.054;5.294;2023-04-24T03:52:47;7.10;;;3.25;;
69989;SDS011;57331;52.054;5.294;2023-04-24T03:55:24;7.63;;;3.25;;
69989;SDS011;57331;52.054;5.294;2023-04-24T03:57:52;7.57;;;3.60;;
69989;SDS011;57331;52.054;5.294;2023-04-24T04:00:21;7.33;;;3.40;;
69989;SDS011;57331;52.054;5.294;2023-04-24T04:03:00;10.65;;;3.67;;
69989;SDS011;57331;52.054;5.294;2023-04-24T04:05:28;9.35;;;4.25;;
69989;SDS011;57331;52.054;5.294;2023-04-24T04:07:56;10.73;;;4.38;;
69989;SDS011;57331;52.054;5.294;2023-04-24T04:10:23;10.95;;;4.90;;
69989;SDS011;57331;52.054;5.294;2023-04-24T04:12:51;11.47;;;4.70;;
69989;SDS011;57331;52.054;5.294;2023-04-24T04:15:17;8.00;;;3.70;;
69989;SDS011;57331;52.054;5.294;2023-04-24T04:17:45;9.32;;;4.50;;
69989;SDS011;57331;52.054;5.294;2023-04-24T04:20:13;7.88;;;3.88;;
69989;SDS011;57331;52.054;5.294;2023-04-24T04:22:40;7.43;;;3.45;;
69989;SDS011;57331;52.054;5.294;2023-04-24T04:25:14;7.50;;;3.43;;
69989;SDS011;57331;52.054;5.294;2023-04-24T04:27:42;9.73;;;3.72;;
69989;SDS011;57331;52.054;5.294;2023-04-24T04:30:11;7.50;;;3.53;;
69989;SDS011;57331;52.054;5.294;2023-04-24T04:32:55;10.45;;;4.65;;
69989;SDS011;57331;52.054;5.294;2023-04-24T04:35:23;6.90;;;3.00;;
69989;SDS011;57331;52.054;5.294;2023-04-24T04:37:51;11.43;;;4.30;;
69989;SDS011;57331;52.054;5.294;2023-04-24T04:40:37;13.05;;;5.20;;
69989;SDS011;57331;52.054;5.294;2023-04-24T04:43:05;9.73;;;4.20;;
69989;SDS011;57331;52.054;5.294;2023-04-24T04:45:40;9.65;;;4.10;;
69989;SDS011;57331;52.054;5.294;2023-04-24T04:48:24;11.45;;;3.95;;
69989;SDS011;57331;52.054;5.294;2023-04-24T04:50:54;8.77;;;3.60;;
69989;SDS011;57331;52.054;5.294;2023-04-24T04:53:22;8.18;;;3.15;;
69989;SDS011;57331;52.054;5.294;2023-04-24T04:55:50;7.05;;;3.15;;
69989;SDS011;57331;52.054;5.294;2023-04-24T04:58:19;7.07;;;3.17;;
69989;SDS011;57331;52.054;5.294;2023-04-24T05:00:51;6.70;;;2.90;;
69989;SDS011;57331;52.054;5.294;2023-04-24T05:03:40;6.70;;;2.63;;
69989;SDS011;57331;52.054;5.294;2023-04-24T05:06:11;5.40;;;2.85;;
69989;SDS011;57331;52.054;5.294;2023-04-24T05:08:39;6.95;;;3.25;;
69989;SDS011;57331;52.054;5.294;2023-04-24T05:11:11;6.97;;;3.17;;
69989;SDS011;57331;52.054;5.294;2023-04-24T05:13:39;7.82;;;3.78;;
69989;SDS011;57331;52.054;5.294;2023-04-24T05:16:17;8.73;;;3.10;;
69989;SDS011;57331;52.054;5.294;2023-04-24T05:18:44;6.75;;;3.33;;
69989;SDS011;57331;52.054;5.294;2023-04-24T05:21:15;10.23;;;4.05;;
69989;SDS011;57331;52.054;5.294;2023-04-24T05:23:46;7.72;;;3.65;;
69989;SDS011;57331;52.054;5.294;2023-04-24T05:26:19;7.10;;;3.47;;
69989;SDS011;57331;52.054;5.294;2023-04-24T05:28:47;7.43;;;4.10;;
69989;SDS011;57331;52.054;5.294;2023-04-24T05:31:15;9.02;;;4.30;;
69989;SDS011;57331;52.054;5.294;2023-04-24T05:33:44;8.75;;;4.38;;
69989;SDS011;57331;52.054;5.294;2023-04-24T05:36:11;8.95;;;3.50;;
69989;SDS011;57331;52.054;5.294;2023-04-24T05:38:40;9.45;;;4.07;;
69989;SDS011;57331;52.054;5.294;2023-04-24T05:41:07;8.77;;;4.20;;
69989;SDS011;57331;52.054;5.294;2023-04-24T05:43:34;9.00;;;4.18;;
69989;SDS011;57331;52.054;5.294;2023-04-24T05:46:02;11.40;;;4.68;;
69989;SDS011;57331;52.054;5.294;2023-04-24T05:48:29;12.60;;;5.32;;
69989;SDS011;57331;52.054;5.294;2023-04-24T05:51:00;10.85;;;4.40;;
69989;SDS011;57331;52.054;5.294;2023-04-24T05:53:27;9.87;;;3.73;;
69989;SDS011;57331;52.054;5.294;2023-04-24T05:55:55;7.28;;;2.80;;
69989;SDS011;57331;52.054;5.294;2023-04-24T05:58:23;8.88;;;2.40;;
69989;SDS011;57331;52.054;5.294;2023-04-24T06:00:50;5.72;;;2.15;;
69989;SDS011;57331;52.054;5.294;2023-04-24T06:03:17;6.22;;;2.40;;
69989;SDS011;57331;52.054;5.294;2023-04-24T06:05:46;5.03;;;2.33;;
69989;SDS011;57331;52.054;5.294;2023-04-24T06:08:14;6.10;;;2.20;;
69989;SDS011;57331;52.054;5.294;2023-04-24T06:10:42;5.70;;;1.67;;
69989;SDS011;57331;52.054;5.294;2023-04-24T06:13:10;4.13;;;1.85;;
69989;SDS011;57331;52.054;5.294;2023-04-24T06:15:41;3.67;;;1.60;;
69989;SDS011;57331;52.054;5.294;2023-04-24T06:18:14;4.20;;;2.00;;
69989;SDS011;57331;52.054;5.294;2023-04-24T06:20:42;15.02;;;2.20;;
69989;SDS011;57331;52.054;5.294;2023-04-24T06:23:09;5.65;;;2.00;;
69989;SDS011;57331;52.054;5.294;2023-04-24T06:25:36;4.32;;;1.83;;
69989;SDS011;57331;52.054;5.294;2023-04-24T06:28:04;5.10;;;2.35;;
69989;SDS011;57331;52.054;5.294;2023-04-24T06:30:31;5.33;;;2.50;;
69989;SDS011;57331;52.054;5.294;2023-04-24T06:32:59;6.18;;;2.63;;
69989;SDS011;57331;52.054;5.294;2023-04-24T06:35:45;8.32;;;3.53;;
69989;SDS011;57331;52.054;5.294;2023-04-24T06:38:12;11.05;;;3.33;;
69989;SDS011;57331;52.054;5.294;2023-04-24T06:40:39;7.72;;;3.55;;
69989;SDS011;57331;52.054;5.294;2023-04-24T06:43:06;11.40;;;4.83;;
69989;SDS011;57331;52.054;5.294;2023-04-24T06:45:34;11.30;;;5.50;;
69989;SDS011;57331;52.054;5.294;2023-04-24T06:48:01;11.80;;;5.97;;
69989;SDS011;57331;52.054;5.294;2023-04-24T06:50:29;16.58;;;6.90;;
69989;SDS011;57331;52.054;5.294;2023-04-24T06:52:56;12.68;;;6.40;;
69989;SDS011;57331;52.054;5.294;2023-04-24T06:55:23;18.10;;;6.37;;
69989;SDS011;57331;52.054;5.294;2023-04-24T06:57:51;15.10;;;7.43;;
69989;SDS011;57331;52.054;5.294;2023-04-24T07:00:18;19.20;;;8.73;;
69989;SDS011;57331;52.054;5.294;2023-04-24T07:02:45;22.00;;;8.45;;
69989;SDS011;57331;52.054;5.294;2023-04-24T07:05:13;14.20;;;7.80;;
69989;SDS011;57331;52.054;5.294;2023-04-24T07:07:42;17.17;;;7.83;;
69989;SDS011;57331;52.054;5.294;2023-04-24T07:10:09;20.17;;;9.10;;
69989;SDS011;57331;52.054;5.294;2023-04-24T07:12:36;17.58;;;8.05;;
69989;SDS011;57331;52.054;5.294;2023-04-24T07:15:05;12.55;;;6.13;;
69989;SDS011;57331;52.054;5.294;2023-04-24T07:17:32;21.58;;;8.10;;
69989;SDS011;57331;52.054;5.294;2023-04-24T07:19:59;16.27;;;8.20;;
69989;SDS011;57331;52.054;5.294;2023-04-24T07:22:27;18.65;;;8.18;;
69989;SDS011;57331;52.054;5.294;2023-04-24T07:24:54;17.85;;;7.88;;
69989;SDS011;57331;52.054;5.294;2023-04-24T07:27:22;17.55;;;8.30;;
69989;SDS011;57331;52.054;5.294;2023-04-24T07:29:49;22.20;;;8.05;;
69989;SDS011;57331;52.054;5.294;2023-04-24T07:32:16;19.60;;;7.17;;
69989;SDS011;57331;52.054;5.294;2023-04-24T07:34:43;18.02;;;8.90;;
69989;SDS011;57331;52.054;5.294;2023-04-24T07:37:10;18.67;;;6.95;;
69989;SDS011;57331;52.054;5.294;2023-04-24T07:39:38;18.08;;;8.43;;
69989;SDS011;57331;52.054;5.294;2023-04-24T07:42:05;14.73;;;8.27;;
69989;SDS011;57331;52.054;5.294;2023-04-24T07:44:33;15.53;;;7.50;;
69989;SDS011;57331;52.054;5.294;2023-04-24T07:46:59;20.67;;;7.53;;
69989;SDS011;57331;52.054;5.294;2023-04-24T07:49:26;18.70;;;7.03;;
69989;SDS011;57331;52.054;5.294;2023-04-24T07:51:54;17.65;;;5.90;;
69989;SDS011;57331;52.054;5.294;2023-04-24T07:54:21;17.25;;;7.03;;
69989;SDS011;57331;52.054;5.294;2023-04-24T07:56:48;26.10;;;6.90;;
69989;SDS011;57331;52.054;5.294;2023-04-24T07:59:16;20.55;;;6.68;;
69989;SDS011;57331;52.054;5.294;2023-04-24T08:01:43;22.80;;;6.70;;
69989;SDS011;57331;52.054;5.294;2023-04-24T08:04:10;17.45;;;5.72;;
69989;SDS011;57331;52.054;5.294;2023-04-24T08:06:38;19.73;;;5.20;;
69989;SDS011;57331;52.054;5.294;2023-04-24T08:09:05;17.13;;;5.30;;
69989;SDS011;57331;52.054;5.294;2023-04-24T08:11:32;26.30;;;4.88;;
69989;SDS011;57331;52.054;5.294;2023-04-24T08:14:00;15.82;;;4.95;;
69989;SDS011;57331;52.054;5.294;2023-04-24T08:16:27;16.25;;;4.70;;
69989;SDS011;57331;52.054;5.294;2023-04-24T08:18:54;10.68;;;3.95;;
69989;SDS011;57331;52.054;5.294;2023-04-24T08:21:22;21.20;;;4.47;;
69989;SDS011;57331;52.054;5.294;2023-04-24T08:23:49;20.27;;;4.35;;
69989;SDS011;57331;52.054;5.294;2023-04-24T08:26:16;13.55;;;3.90;;
69989;SDS011;57331;52.054;5.294;2023-04-24T08:28:43;16.48;;;4.60;;
69989;SDS011;57331;52.054;5.294;2023-04-24T08:31:11;14.90;;;3.35;;
69989;SDS011;57331;52.054;5.294;2023-04-24T08:33:38;15.67;;;3.50;;
69989;SDS011;57331;52.054;5.294;2023-04-24T08:36:07;18.90;;;3.58;;
69989;SDS011;57331;52.054;5.294;2023-04-24T08:38:34;17.13;;;3.63;;
69989;SDS011;57331;52.054;5.294;2023-04-24T08:41:02;14.40;;;3.20;;
69989;SDS011;57331;52.054;5.294;2023-04-24T08:43:30;10.68;;;2.88;;
69989;SDS011;57331;52.054;5.294;2023-04-24T08:45:59;17.83;;;3.90;;
69989;SDS011;57331;52.054;5.294;2023-04-24T08:48:26;14.80;;;2.33;;
69989;SDS011;57331;52.054;5.294;2023-04-24T08:50:58;9.93;;;3.47;;
69989;SDS011;57331;52.054;5.294;2023-04-24T08:53:25;11.68;;;2.85;;
69989;SDS011;57331;52.054;5.294;2023-04-24T08:55:54;9.75;;;3.00;;
69989;SDS011;57331;52.054;5.294;2023-04-24T08:58:22;9.83;;;2.77;;
69989;SDS011;57331;52.054;5.294;2023-04-24T09:00:55;8.40;;;3.38;;
69989;SDS011;57331;52.054;5.294;2023-04-24T09:03:23;18.90;;;2.80;;
69989;SDS011;57331;52.054;5.294;2023-04-24T09:05:51;10.13;;;2.50;;
69989;SDS011;57331;52.054;5.294;2023-04-24T09:08:20;15.95;;;2.65;;
69989;SDS011;57331;52.054;5.294;2023-04-24T09:10:50;9.70;;;2.70;;
69989;SDS011;57331;52.054;5.294;2023-04-24T09:13:18;14.00;;;3.05;;
69989;SDS011;57331;52.054;5.294;2023-04-24T09:15:46;12.88;;;2.67;;
69989;SDS011;57331;52.054;5.294;2023-04-24T09:18:14;11.52;;;2.75;;
69989;SDS011;57331;52.054;5.294;2023-04-24T09:20:57;9.85;;;3.63;;
69989;SDS011;57331;52.054;5.294;2023-04-24T09:23:28;11.13;;;2.60;;
69989;SDS011;57331;52.054;5.294;2023-04-24T09:25:56;11.70;;;2.78;;
69989;SDS011;57331;52.054;5.294;2023-04-24T09:28:32;11.00;;;2.60;;
69989;SDS011;57331;52.054;5.294;2023-04-24T09:31:08;11.55;;;2.80;;
69989;SDS011;57331;52.054;5.294;2023-04-24T09:33:36;10.07;;;2.88;;
69989;SDS011;57331;52.054;5.294;2023-04-24T09:36:04;20.07;;;3.00;;
69989;SDS011;57331;52.054;5.294;2023-04-24T09:38:33;11.40;;;3.05;;
69989;SDS011;57331;52.054;5.294;2023-04-24T09:41:05;12.38;;;3.35;;
69989;SDS011;57331;52.054;5.294;2023-04-24T09:43:34;8.30;;;2.20;;
69989;SDS011;57331;52.054;5.294;2023-04-24T09:46:05;11.88;;;2.50;;
69989;SDS011;57331;52.054;5.294;2023-04-24T09:48:34;11.37;;;2.20;;
69989;SDS011;57331;52.054;5.294;2023-04-24T09:51:05;7.60;;;2.42;;
69989;SDS011;57331;52.054;5.294;2023-04-24T09:53:38;11.32;;;2.50;;
69989;SDS011;57331;52.054;5.294;2023-04-24T09:56:10;5.32;;;2.17;;
69989;SDS011;57331;52.054;5.294;2023-04-24T09:58:41;8.68;;;2.35;;
69989;SDS011;57331;52.054;5.294;2023-04-24T10:01:08;8.73;;;2.03;;
69989;SDS011;57331;52.054;5.294;2023-04-24T10:03:35;6.50;;;2.28;;
69989;SDS011;57331;52.054;5.294;2023-04-24T10:06:03;10.75;;;2.05;;
69989;SDS011;57331;52.054;5.294;2023-04-24T10:08:35;10.75;;;2.00;;
69989;SDS011;57331;52.054;5.294;2023-04-24T10:11:04;6.95;;;2.03;;
69989;SDS011;57331;52.054;5.294;2023-04-24T10:13:31;4.57;;;2.00;;
69989;SDS011;57331;52.054;5.294;2023-04-24T10:15:59;18.77;;;2.17;;
69989;SDS011;57331;52.054;5.294;2023-04-24T10:18:27;7.18;;;1.95;;
69989;SDS011;57331;52.054;5.294;2023-04-24T10:20:55;16.83;;;2.53;;
69989;SDS011;57331;52.054;5.294;2023-04-24T10:23:23;6.35;;;2.13;;
69989;SDS011;57331;52.054;5.294;2023-04-24T10:25:51;3.07;;;1.30;;
69989;SDS011;57331;52.054;5.294;2023-04-24T10:28:20;6.88;;;1.92;;
69989;SDS011;57331;52.054;5.294;2023-04-24T10:30:47;4.30;;;1.77;;
69989;SDS011;57331;52.054;5.294;2023-04-24T10:33:16;4.25;;;1.75;;
69989;SDS011;57331;52.054;5.294;2023-04-24T10:35:44;5.63;;;1.58;;
69989;SDS011;57331;52.054;5.294;2023-04-24T10:38:21;3.00;;;1.40;;
69989;SDS011;57331;52.054;5.294;2023-04-24T10:40:51;4.18;;;1.75;;
69989;SDS011;57331;52.054;5.294;2023-04-24T10:43:18;7.68;;;1.90;;
69989;SDS011;57331;52.054;5.294;2023-04-24T10:46:01;6.22;;;2.13;;
69989;SDS011;57331;52.054;5.294;2023-04-24T10:48:29;5.20;;;1.52;;
69989;SDS011;57331;52.054;5.294;2023-04-24T10:50:57;5.87;;;1.60;;
69989;SDS011;57331;52.054;5.294;2023-04-24T10:53:26;5.30;;;1.65;;
69989;SDS011;57331;52.054;5.294;2023-04-24T10:55:58;6.60;;;1.60;;
69989;SDS011;57331;52.054;5.294;2023-04-24T10:58:38;5.28;;;1.77;;
69989;SDS011;57331;52.054;5.294;2023-04-24T11:01:07;3.67;;;1.73;;
69989;SDS011;57331;52.054;5.294;2023-04-24T11:03:34;7.30;;;1.83;;
69989;SDS011;57331;52.054;5.294;2023-04-24T11:06:04;7.53;;;2.78;;
69989;SDS011;57331;52.054;5.294;2023-04-24T11:08:37;3.67;;;1.45;;
69989;SDS011;57331;52.054;5.294;2023-04-24T11:11:15;5.43;;;1.48;;
69989;SDS011;57331;52.054;5.294;2023-04-24T11:19:00;4.05;;;1.60;;
69989;SDS011;57331;52.054;5.294;2023-04-24T11:24:48;5.65;;;1.80;;
69989;SDS011;57331;52.054;5.294;2023-04-24T11:27:23;4.82;;;1.90;;
69989;SDS011;57331;52.054;5.294;2023-04-24T11:34:56;5.97;;;1.90;;
69989;SDS011;57331;52.054;5.294;2023-04-24T11:40:03;8.30;;;1.80;;
69989;SDS011;57331;52.054;5.294;2023-04-24T11:42:35;9.27;;;1.60;;
69989;SDS011;57331;52.054;5.294;2023-04-24T11:45:10;3.97;;;1.52;;
69989;SDS011;57331;52.054;5.294;2023-04-24T11:47:38;6.57;;;1.70;;
69989;SDS011;57331;52.054;5.294;2023-04-24T11:50:07;3.47;;;1.55;;
69989;SDS011;57331;52.054;5.294;2023-04-24T11:52:39;9.52;;;1.80;;
69989;SDS011;57331;52.054;5.294;2023-04-24T11:57:47;4.43;;;1.77;;
69989;SDS011;57331;52.054;5.294;2023-04-24T12:00:20;2.53;;;1.38;;
69989;SDS011;57331;52.054;5.294;2023-04-24T12:02:49;6.97;;;1.70;;
69989;SDS011;57331;52.054;5.294;2023-04-24T12:07:48;5.90;;;1.93;;
69989;SDS011;57331;52.054;5.294;2023-04-24T12:10:25;11.18;;;2.00;;
69989;SDS011;57331;52.054;5.294;2023-04-24T12:12:55;8.30;;;1.63;;
69989;SDS011;57331;52.054;5.294;2023-04-24T12:15:23;5.40;;;1.60;;
69989;SDS011;57331;52.054;5.294;2023-04-24T12:17:51;7.65;;;2.00;;
69989;SDS011;57331;52.054;5.294;2023-04-24T12:20:23;5.13;;;1.80;;
69989;SDS011;57331;52.054;5.294;2023-04-24T12:22:59;7.00;;;2.08;;
69989;SDS011;57331;52.054;5.294;2023-04-24T12:25:33;6.13;;;1.90;;
69989;SDS011;57331;52.054;5.294;2023-04-24T12:30:32;4.60;;;1.88;;
69989;SDS011;57331;52.054;5.294;2023-04-24T12:33:02;6.13;;;1.77;;
69989;SDS011;57331;52.054;5.294;2023-04-24T12:35:30;5.80;;;1.80;;
69989;SDS011;57331;52.054;5.294;2023-04-24T12:38:06;7.43;;;1.80;;
69989;SDS011;57331;52.054;5.294;2023-04-24T12:40:34;13.90;;;1.90;;
69989;SDS011;57331;52.054;5.294;2023-04-24T12:43:02;7.57;;;1.95;;
69989;SDS011;57331;52.054;5.294;2023-04-24T12:45:29;7.53;;;2.00;;
69989;SDS011;57331;52.054;5.294;2023-04-24T12:47:56;7.07;;;2.38;;
69989;SDS011;57331;52.054;5.294;2023-04-24T12:50:24;8.27;;;2.42;;
69989;SDS011;57331;52.054;5.294;2023-04-24T12:52:51;8.05;;;2.33;;
69989;SDS011;57331;52.054;5.294;2023-04-24T12:55:19;7.22;;;2.55;;
69989;SDS011;57331;52.054;5.294;2023-04-24T12:57:46;9.50;;;2.20;;
69989;SDS011;57331;52.054;5.294;2023-04-24T13:00:13;5.05;;;2.15;;
69989;SDS011;57331;52.054;5.294;2023-04-24T13:02:44;5.55;;;2.03;;
69989;SDS011;57331;52.054;5.294;2023-04-24T13:05:11;10.57;;;2.03;;
69989;SDS011;57331;52.054;5.294;2023-04-24T13:07:40;6.07;;;2.63;;
69989;SDS011;57331;52.054;5.294;2023-04-24T13:10:07;12.03;;;2.27;;
69989;SDS011;57331;52.054;5.294;2023-04-24T13:12:34;5.97;;;1.73;;
69989;SDS011;57331;52.054;5.294;2023-04-24T13:15:02;7.03;;;2.72;;
69989;SDS011;57331;52.054;5.294;2023-04-24T13:17:29;10.70;;;2.65;;
69989;SDS011;57331;52.054;5.294;2023-04-24T13:19:57;6.53;;;2.53;;
69989;SDS011;57331;52.054;5.294;2023-04-24T13:22:24;10.20;;;2.50;;
69989;SDS011;57331;52.054;5.294;2023-04-24T13:24:51;10.70;;;2.90;;
69989;SDS011;57331;52.054;5.294;2023-04-24T13:27:19;18.58;;;3.13;;
69989;SDS011;57331;52.054;5.294;2023-04-24T13:29:46;11.15;;;2.90;;
69989;SDS011;57331;52.054;5.294;2023-04-24T13:32:13;5.93;;;2.20;;
69989;SDS011;57331;52.054;5.294;2023-04-24T13:34:41;10.57;;;3.40;;
69989;SDS011;57331;52.054;5.294;2023-04-24T13:37:08;5.15;;;2.22;;
69989;SDS011;57331;52.054;5.294;2023-04-24T13:39:36;8.35;;;2.42;;
69989;SDS011;57331;52.054;5.294;2023-04-24T13:42:03;7.75;;;2.35;;
69989;SDS011;57331;52.054;5.294;2023-04-24T13:44:30;8.07;;;2.75;;
69989;SDS011;57331;52.054;5.294;2023-04-24T13:46:58;12.47;;;3.03;;
69989;SDS011;57331;52.054;5.294;2023-04-24T13:49:26;9.45;;;2.85;;
69989;SDS011;57331;52.054;5.294;2023-04-24T13:51:54;13.98;;;3.45;;
69989;SDS011;57331;52.054;5.294;2023-04-24T13:54:22;8.60;;;2.30;;
69989;SDS011;57331;52.054;5.294;2023-04-24T13:56:51;12.43;;;2.78;;
69989;SDS011;57331;52.054;5.294;2023-04-24T13:59:19;12.70;;;2.43;;
69989;SDS011;57331;52.054;5.294;2023-04-24T14:01:47;8.90;;;2.20;;
69989;SDS011;57331;52.054;5.294;2023-04-24T14:04:15;7.13;;;2.25;;
69989;SDS011;57331;52.054;5.294;2023-04-24T14:06:43;8.95;;;2.47;;
69989;SDS011;57331;52.054;5.294;2023-04-24T14:09:10;6.85;;;2.70;;
69989;SDS011;57331;52.054;5.294;2023-04-24T14:11:39;17.47;;;2.87;;
69989;SDS011;57331;52.054;5.294;2023-04-24T14:14:06;7.63;;;2.50;;
69989;SDS011;57331;52.054;5.294;2023-04-24T14:16:34;6.60;;;2.90;;
69989;SDS011;57331;52.054;5.294;2023-04-24T14:19:02;6.13;;;2.53;;
69989;SDS011;57331;52.054;5.294;2023-04-24T14:21:29;7.03;;;2.10;;
69989;SDS011;57331;52.054;5.294;2023-04-24T14:23:56;7.57;;;2.70;;
69989;SDS011;57331;52.054;5.294;2023-04-24T14:26:24;12.50;;;2.70;;
69989;SDS011;57331;52.054;5.294;2023-04-24T14:28:51;10.88;;;2.70;;
69989;SDS011;57331;52.054;5.294;2023-04-24T14:31:36;14.02;;;3.03;;
69989;SDS011;57331;52.054;5.294;2023-04-24T14:34:04;17.15;;;3.20;;
69989;SDS011;57331;52.054;5.294;2023-04-24T14:36:31;6.83;;;3.20;;
69989;SDS011;57331;52.054;5.294;2023-04-24T14:38:59;12.75;;;2.97;;
69989;SDS011;57331;52.054;5.294;2023-04-24T14:41:26;7.35;;;2.55;;
69989;SDS011;57331;52.054;5.294;2023-04-24T14:43:53;9.45;;;2.78;;
69989;SDS011;57331;52.054;5.294;2023-04-24T14:46:20;12.82;;;3.17;;
69989;SDS011;57331;52.054;5.294;2023-04-24T14:48:48;9.07;;;2.70;;
69989;SDS011;57331;52.054;5.294;2023-04-24T14:51:15;12.98;;;2.65;;
69989;SDS011;57331;52.054;5.294;2023-04-24T14:53:42;11.77;;;2.67;;
69989;SDS011;57331;52.054;5.294;2023-04-24T14:56:10;11.68;;;3.25;;
69989;SDS011;57331;52.054;5.294;2023-04-24T14:58:37;11.18;;;2.80;;
69989;SDS011;57331;52.054;5.294;2023-04-24T15:01:04;10.03;;;3.13;;
69989;SDS011;57331;52.054;5.294;2023-04-24T15:03:31;12.60;;;3.85;;
69989;SDS011;57331;52.054;5.294;2023-04-24T15:05:58;10.88;;;3.28;;
69989;SDS011;57331;52.054;5.294;2023-04-24T15:08:27;12.23;;;3.70;;
69989;SDS011;57331;52.054;5.294;2023-04-24T15:10:54;17.45;;;3.92;;
69989;SDS011;57331;52.054;5.294;2023-04-24T15:13:22;10.00;;;2.63;;
69989;SDS011;57331;52.054;5.294;2023-04-24T15:15:49;10.13;;;3.00;;
69989;SDS011;57331;52.054;5.294;2023-04-24T15:18:17;11.38;;;3.47;;